sensor_id;sensor_type;location;lat;lon;timestamp;pressure;altitude;pressure_sealevel;temperature;humidity
3464;BME280;3551;41.578;24.706;2023-08-06T00:00:14;90273.41;;;21.27;60.56
3464;BME280;3551;41.578;24.706;2023-08-06T00:02:41;90278.63;;;21.31;60.41
3464;BME280;3551;41.578;24.706;2023-08-06T00:05:08;90269.16;;;21.47;60.66
3464;BME280;3551;41.578;24.706;2023-08-06T00:07:34;90266.25;;;21.56;59.79
3464;BME280;3551;41.578;24.706;2023-08-06T00:10:01;90263.97;;;21.49;60.24
3464;BME280;3551;41.578;24.706;2023-08-06T00:12:29;90257.78;;;21.22;60.65
3464;BME280;3551;41.578;24.706;2023-08-06T00:14:55;90252.56;;;21.45;62.07
3464;BME280;3551;41.578;24.706;2023-08-06T00:17:22;90250.22;;;20.66;60.81
3464;BME280;3551;41.578;24.706;2023-08-06T00:19:49;90248.09;;;20.55;61.07
3464;BME280;3551;41.578;24.706;2023-08-06T00:22:15;90236.00;;;20.76;61.04
3464;BME280;3551;41.578;24.706;2023-08-06T00:24:42;90234.41;;;20.90;60.94
3464;BME280;3551;41.578;24.706;2023-08-06T00:27:09;90235.81;;;20.80;61.35
3464;BME280;3551;41.578;24.706;2023-08-06T00:29:37;90243.13;;;20.94;61.07
3464;BME280;3551;41.578;24.706;2023-08-06T00:32:03;90242.78;;;21.07;63.35
3464;BME280;3551;41.578;24.706;2023-08-06T00:34:30;90241.63;;;20.93;62.23
3464;BME280;3551;41.578;24.706;2023-08-06T00:36:56;90225.63;;;20.75;62.83
3464;BME280;3551;41.578;24.706;2023-08-06T00:39:23;90228.25;;;20.90;62.10
3464;BME280;3551;41.578;24.706;2023-08-06T00:41:50;90229.59;;;21.00;63.13
3464;BME280;3551;41.578;24.706;2023-08-06T00:44:16;90212.78;;;20.55;63.20
3464;BME280;3551;41.578;24.706;2023-08-06T00:46:44;90215.66;;;20.66;62.88
3464;BME280;3551;41.578;24.706;2023-08-06T00:49:11;90204.94;;;20.57;62.69
3464;BME280;3551;41.578;24.706;2023-08-06T00:51:37;90210.59;;;20.80;63.17
3464;BME280;3551;41.578;24.706;2023-08-06T00:54:04;90208.94;;;20.88;62.76
3464;BME280;3551;41.578;24.706;2023-08-06T00:56:31;90197.66;;;20.69;62.30
3464;BME280;3551;41.578;24.706;2023-08-06T00:58:59;90199.97;;;20.36;63.41
3464;BME280;3551;41.578;24.706;2023-08-06T01:01:26;90197.88;;;20.45;62.62
3464;BME280;3551;41.578;24.706;2023-08-06T01:03:54;90187.53;;;20.49;63.01
3464;BME280;3551;41.578;24.706;2023-08-06T01:06:30;90188.28;;;20.50;62.97
3464;BME280;3551;41.578;24.706;2023-08-06T01:09:01;90196.16;;;20.68;61.89
3464;BME280;3551;41.578;24.706;2023-08-06T01:11:30;90196.59;;;20.87;61.68
3464;BME280;3551;41.578;24.706;2023-08-06T01:14:02;90195.59;;;20.64;61.87
3464;BME280;3551;41.578;24.706;2023-08-06T01:16:29;90196.63;;;20.66;62.02
3464;BME280;3551;41.578;24.706;2023-08-06T01:18:58;90200.75;;;20.82;61.04
3464;BME280;3551;41.578;24.706;2023-08-06T01:21:26;90196.72;;;20.98;63.18
3464;BME280;3551;41.578;24.706;2023-08-06T01:23:53;90190.81;;;20.79;62.48
3464;BME280;3551;41.578;24.706;2023-08-06T01:26:22;90177.47;;;21.01;62.92
3464;BME280;3551;41.578;24.706;2023-08-06T01:28:52;90178.81;;;21.11;62.77
3464;BME280;3551;41.578;24.706;2023-08-06T01:31:22;90163.78;;;20.44;63.29
3464;BME280;3551;41.578;24.706;2023-08-06T01:33:50;90160.16;;;20.53;62.54
3464;BME280;3551;41.578;24.706;2023-08-06T01:36:17;90154.63;;;20.42;63.86
3464;BME280;3551;41.578;24.706;2023-08-06T01:38:46;90158.09;;;20.68;63.42
3464;BME280;3551;41.578;24.706;2023-08-06T01:41:13;90156.78;;;20.84;62.89
3464;BME280;3551;41.578;24.706;2023-08-06T01:43:40;90157.50;;;20.58;63.09
3464;BME280;3551;41.578;24.706;2023-08-06T01:46:06;90153.88;;;20.67;62.42
3464;BME280;3551;41.578;24.706;2023-08-06T01:48:33;90150.72;;;20.68;62.53
3464;BME280;3551;41.578;24.706;2023-08-06T01:50:59;90147.03;;;20.71;62.86
3464;BME280;3551;41.578;24.706;2023-08-06T01:53:26;90139.47;;;20.15;63.47
3464;BME280;3551;41.578;24.706;2023-08-06T01:55:54;90136.53;;;20.18;63.76
3464;BME280;3551;41.578;24.706;2023-08-06T01:58:21;90137.31;;;20.39;63.07
3464;BME280;3551;41.578;24.706;2023-08-06T02:00:48;90140.69;;;20.54;62.72
3464;BME280;3551;41.578;24.706;2023-08-06T02:03:14;90141.75;;;20.62;62.69
3464;BME280;3551;41.578;24.706;2023-08-06T02:05:41;90134.63;;;20.65;61.42
3464;BME280;3551;41.578;24.706;2023-08-06T02:08:08;90132.75;;;20.76;61.52
3464;BME280;3551;41.578;24.706;2023-08-06T02:10:34;90133.50;;;21.03;62.84
3464;BME280;3551;41.578;24.706;2023-08-06T02:13:02;90129.50;;;21.24;63.18
3464;BME280;3551;41.578;24.706;2023-08-06T02:15:29;90127.59;;;21.04;63.97
3464;BME280;3551;41.578;24.706;2023-08-06T02:17:56;90126.81;;;20.52;63.05
3464;BME280;3551;41.578;24.706;2023-08-06T02:20:22;90132.41;;;20.43;62.99
3464;BME280;3551;41.578;24.706;2023-08-06T02:22:49;90128.41;;;20.18;63.87
3464;BME280;3551;41.578;24.706;2023-08-06T02:25:15;90125.94;;;20.20;63.83
3464;BME280;3551;41.578;24.706;2023-08-06T02:27:42;90130.50;;;20.09;65.57
3464;BME280;3551;41.578;24.706;2023-08-06T02:30:10;90131.56;;;20.17;65.90
3464;BME280;3551;41.578;24.706;2023-08-06T02:32:37;90130.59;;;18.95;70.75
3464;BME280;3551;41.578;24.706;2023-08-06T02:35:04;90135.59;;;18.44;73.11
3464;BME280;3551;41.578;24.706;2023-08-06T02:37:32;90134.03;;;18.52;73.23
3464;BME280;3551;41.578;24.706;2023-08-06T02:39:59;90129.47;;;19.02;71.59
3464;BME280;3551;41.578;24.706;2023-08-06T02:42:25;90135.31;;;19.30;69.93
3464;BME280;3551;41.578;24.706;2023-08-06T02:44:53;90140.78;;;19.64;68.97
3464;BME280;3551;41.578;24.706;2023-08-06T02:47:21;90147.19;;;19.82;68.26
3464;BME280;3551;41.578;24.706;2023-08-06T02:49:48;90147.72;;;19.86;66.95
3464;BME280;3551;41.578;24.706;2023-08-06T02:52:15;90143.31;;;19.88;66.57
3464;BME280;3551;41.578;24.706;2023-08-06T02:54:42;90134.53;;;20.13;66.32
3464;BME280;3551;41.578;24.706;2023-08-06T02:57:09;90140.91;;;20.31;65.41
3464;BME280;3551;41.578;24.706;2023-08-06T02:59:35;90149.03;;;20.51;67.32
3464;BME280;3551;41.578;24.706;2023-08-06T03:02:02;90149.56;;;20.55;66.65
3464;BME280;3551;41.578;24.706;2023-08-06T03:04:30;90152.28;;;20.55;65.58
3464;BME280;3551;41.578;24.706;2023-08-06T03:06:57;90140.53;;;20.43;65.57
3464;BME280;3551;41.578;24.706;2023-08-06T03:09:24;90144.81;;;20.50;64.92
3464;BME280;3551;41.578;24.706;2023-08-06T03:11:51;90155.50;;;20.79;64.90
3464;BME280;3551;41.578;24.706;2023-08-06T03:14:17;90138.19;;;20.76;65.13
3464;BME280;3551;41.578;24.706;2023-08-06T03:16:44;90145.88;;;20.78;64.73
3464;BME280;3551;41.578;24.706;2023-08-06T03:19:11;90148.03;;;20.74;64.39
3464;BME280;3551;41.578;24.706;2023-08-06T03:21:39;90142.50;;;20.63;63.84
3464;BME280;3551;41.578;24.706;2023-08-06T03:24:06;90145.59;;;20.76;65.08
3464;BME280;3551;41.578;24.706;2023-08-06T03:26:33;90142.44;;;20.83;64.40
3464;BME280;3551;41.578;24.706;2023-08-06T03:28:59;90143.16;;;20.58;64.44
3464;BME280;3551;41.578;24.706;2023-08-06T03:31:26;90137.38;;;20.70;64.19
3464;BME280;3551;41.578;24.706;2023-08-06T03:33:52;90117.50;;;20.59;63.97
3464;BME280;3551;41.578;24.706;2023-08-06T03:36:19;90130.66;;;20.92;64.87
3464;BME280;3551;41.578;24.706;2023-08-06T03:38:47;90116.44;;;21.02;64.01
3464;BME280;3551;41.578;24.706;2023-08-06T03:41:14;90118.19;;;21.05;63.91
3464;BME280;3551;41.578;24.706;2023-08-06T03:43:40;90119.31;;;20.93;63.67
3464;BME280;3551;41.578;24.706;2023-08-06T03:46:07;90127.06;;;20.74;64.72
3464;BME280;3551;41.578;24.706;2023-08-06T03:48:33;90129.91;;;20.91;64.13
3464;BME280;3551;41.578;24.706;2023-08-06T03:51:00;90117.13;;;20.97;64.47
3464;BME280;3551;41.578;24.706;2023-08-06T03:53:27;90111.81;;;21.08;63.71
3464;BME280;3551;41.578;24.706;2023-08-06T03:55:55;90111.25;;;21.30;64.92
3464;BME280;3551;41.578;24.706;2023-08-06T03:58:25;90096.50;;;21.42;65.69
3464;BME280;3551;41.578;24.706;2023-08-06T04:00:57;90090.38;;;21.16;64.54
3464;BME280;3551;41.578;24.706;2023-08-06T04:03:23;90097.69;;;21.36;65.90
3464;BME280;3551;41.578;24.706;2023-08-06T04:05:50;90089.94;;;20.97;65.97
3464;BME280;3551;41.578;24.706;2023-08-06T04:08:17;90090.38;;;21.16;67.03
3464;BME280;3551;41.578;24.706;2023-08-06T04:10:43;90080.03;;;20.37;69.37
3464;BME280;3551;41.578;24.706;2023-08-06T04:13:11;90078.81;;;19.98;71.65
3464;BME280;3551;41.578;24.706;2023-08-06T04:15:38;90076.13;;;20.23;70.77
3464;BME280;3551;41.578;24.706;2023-08-06T04:18:04;90074.34;;;20.41;70.19
3464;BME280;3551;41.578;24.706;2023-08-06T04:20:31;90057.75;;;20.59;69.78
3464;BME280;3551;41.578;24.706;2023-08-06T04:22:58;90056.00;;;20.87;71.09
3464;BME280;3551;41.578;24.706;2023-08-06T04:25:25;90067.50;;;21.02;68.49
3464;BME280;3551;41.578;24.706;2023-08-06T04:27:51;90084.84;;;20.07;72.07
3464;BME280;3551;41.578;24.706;2023-08-06T04:30:19;90100.91;;;19.36;76.23
3464;BME280;3551;41.578;24.706;2023-08-06T04:32:46;90098.03;;;19.25;77.19
3464;BME280;3551;41.578;24.706;2023-08-06T04:35:12;90092.38;;;19.78;75.27
3464;BME280;3551;41.578;24.706;2023-08-06T04:37:39;90101.59;;;20.06;74.15
3464;BME280;3551;41.578;24.706;2023-08-06T04:40:06;90108.19;;;20.19;71.46
3464;BME280;3551;41.578;24.706;2023-08-06T04:42:33;90093.44;;;20.06;71.82
3464;BME280;3551;41.578;24.706;2023-08-06T04:45:00;90081.94;;;20.31;70.97
3464;BME280;3551;41.578;24.706;2023-08-06T04:47:28;90084.53;;;20.71;71.46
3464;BME280;3551;41.578;24.706;2023-08-06T04:49:55;90082.66;;;20.83;71.86
3464;BME280;3551;41.578;24.706;2023-08-06T04:52:22;90108.94;;;20.92;72.79
3464;BME280;3551;41.578;24.706;2023-08-06T04:54:48;90107.69;;;20.67;71.29
3464;BME280;3551;41.578;24.706;2023-08-06T04:57:15;90072.81;;;20.34;71.06
3464;BME280;3551;41.578;24.706;2023-08-06T04:59:41;90054.31;;;20.64;71.01
3464;BME280;3551;41.578;24.706;2023-08-06T05:02:08;90066.41;;;20.89;71.93
3464;BME280;3551;41.578;24.706;2023-08-06T05:04:36;90067.28;;;20.74;74.32
3464;BME280;3551;41.578;24.706;2023-08-06T05:07:03;90058.25;;;20.57;77.31
3464;BME280;3551;41.578;24.706;2023-08-06T05:09:29;90080.47;;;20.61;77.72
3464;BME280;3551;41.578;24.706;2023-08-06T05:11:56;90148.66;;;20.84;77.74
3464;BME280;3551;41.578;24.706;2023-08-06T05:14:23;90130.56;;;20.81;81.72
3464;BME280;3551;41.578;24.706;2023-08-06T05:16:50;90089.91;;;20.40;93.59
3464;BME280;3551;41.578;24.706;2023-08-06T05:19:16;90077.31;;;20.63;94.84
3464;BME280;3551;41.578;24.706;2023-08-06T05:21:44;90052.81;;;19.91;100.00
3464;BME280;3551;41.578;24.706;2023-08-06T05:24:11;90047.81;;;18.94;100.00
3464;BME280;3551;41.578;24.706;2023-08-06T05:26:38;90066.03;;;19.08;100.00
3464;BME280;3551;41.578;24.706;2023-08-06T05:29:05;90091.00;;;19.67;100.00
3464;BME280;3551;41.578;24.706;2023-08-06T05:31:31;90104.50;;;19.82;100.00
3464;BME280;3551;41.578;24.706;2023-08-06T05:33:58;90120.88;;;20.08;100.00
3464;BME280;3551;41.578;24.706;2023-08-06T05:36:25;90122.16;;;20.33;100.00
3464;BME280;3551;41.578;24.706;2023-08-06T05:38:53;90111.91;;;20.22;100.00
3464;BME280;3551;41.578;24.706;2023-08-06T05:41:20;90124.63;;;19.90;100.00
3464;BME280;3551;41.578;24.706;2023-08-06T05:43:46;90118.63;;;20.06;100.00
3464;BME280;3551;41.578;24.706;2023-08-06T05:46:13;90116.28;;;20.34;100.00
3464;BME280;3551;41.578;24.706;2023-08-06T05:48:40;90097.41;;;20.05;100.00
3464;BME280;3551;41.578;24.706;2023-08-06T05:51:06;90088.97;;;20.03;100.00
3464;BME280;3551;41.578;24.706;2023-08-06T05:53:33;90084.47;;;20.20;100.00
3464;BME280;3551;41.578;24.706;2023-08-06T05:56:01;90071.19;;;20.22;100.00
3464;BME280;3551;41.578;24.706;2023-08-06T05:58:28;90053.88;;;20.19;100.00
3464;BME280;3551;41.578;24.706;2023-08-06T06:00:55;90029.06;;;20.06;100.00
3464;BME280;3551;41.578;24.706;2023-08-06T06:03:22;90020.41;;;20.54;100.00
3464;BME280;3551;41.578;24.706;2023-08-06T06:05:50;90016.16;;;21.52;100.00
3464;BME280;3551;41.578;24.706;2023-08-06T06:08:16;90024.50;;;21.85;100.00
3464;BME280;3551;41.578;24.706;2023-08-06T06:10:43;90028.19;;;21.82;100.00
3464;BME280;3551;41.578;24.706;2023-08-06T06:13:11;90029.84;;;21.69;100.00
3464;BME280;3551;41.578;24.706;2023-08-06T06:15:38;90030.00;;;21.97;100.00
3464;BME280;3551;41.578;24.706;2023-08-06T06:18:04;90041.56;;;22.62;100.00
3464;BME280;3551;41.578;24.706;2023-08-06T06:20:31;90058.72;;;23.12;100.00
3464;BME280;3551;41.578;24.706;2023-08-06T06:22:58;90075.56;;;23.33;99.28
3464;BME280;3551;41.578;24.706;2023-08-06T06:25:25;90077.59;;;23.49;99.26
3464;BME280;3551;41.578;24.706;2023-08-06T06:27:51;90077.06;;;23.28;96.33
3464;BME280;3551;41.578;24.706;2023-08-06T06:30:19;90070.88;;;23.17;94.79
3464;BME280;3551;41.578;24.706;2023-08-06T06:32:47;90071.34;;;23.21;92.00
3464;BME280;3551;41.578;24.706;2023-08-06T06:35:13;90061.94;;;23.22;92.12
3464;BME280;3551;41.578;24.706;2023-08-06T06:37:40;90058.47;;;23.49;89.36
3464;BME280;3551;41.578;24.706;2023-08-06T06:40:07;90062.53;;;24.05;87.93
3464;BME280;3551;41.578;24.706;2023-08-06T06:42:34;90053.75;;;24.35;85.29
3464;BME280;3551;41.578;24.706;2023-08-06T06:45:00;90051.50;;;24.85;84.49
3464;BME280;3551;41.578;24.706;2023-08-06T06:47:29;90051.34;;;25.07;79.55
3464;BME280;3551;41.578;24.706;2023-08-06T06:49:55;90046.13;;;25.39;79.94
3464;BME280;3551;41.578;24.706;2023-08-06T06:52:22;90041.03;;;25.54;76.46
3464;BME280;3551;41.578;24.706;2023-08-06T06:54:49;90045.44;;;25.87;77.26
3464;BME280;3551;41.578;24.706;2023-08-06T06:57:15;90053.13;;;26.13;77.47
3464;BME280;3551;41.578;24.706;2023-08-06T06:59:42;90053.59;;;26.41;79.21
3464;BME280;3551;41.578;24.706;2023-08-06T07:02:09;90050.69;;;26.71;72.07
3464;BME280;3551;41.578;24.706;2023-08-06T07:04:37;90061.59;;;26.95;69.94
3464;BME280;3551;41.578;24.706;2023-08-06T07:07:03;90067.91;;;26.90;70.97
3464;BME280;3551;41.578;24.706;2023-08-06T07:09:29;90069.84;;;26.95;70.53
3464;BME280;3551;41.578;24.706;2023-08-06T07:11:56;90069.53;;;26.80;68.82
3464;BME280;3551;41.578;24.706;2023-08-06T07:14:24;90062.78;;;26.62;70.66
3464;BME280;3551;41.578;24.706;2023-08-06T07:16:51;90072.94;;;26.49;67.48
3464;BME280;3551;41.578;24.706;2023-08-06T07:19:17;90077.09;;;26.55;68.47
3464;BME280;3551;41.578;24.706;2023-08-06T07:21:45;90086.13;;;26.50;68.15
3464;BME280;3551;41.578;24.706;2023-08-06T07:24:12;90077.13;;;26.31;70.07
3464;BME280;3551;41.578;24.706;2023-08-06T07:26:39;90075.69;;;26.00;68.96
3464;BME280;3551;41.578;24.706;2023-08-06T07:29:05;90076.28;;;26.17;71.46
3464;BME280;3551;41.578;24.706;2023-08-06T07:31:32;90076.41;;;26.01;73.00
3464;BME280;3551;41.578;24.706;2023-08-06T07:33:59;90081.09;;;26.30;74.84
3464;BME280;3551;41.578;24.706;2023-08-06T07:36:25;90075.13;;;26.32;75.21
3464;BME280;3551;41.578;24.706;2023-08-06T07:38:53;90080.91;;;26.90;74.49
3464;BME280;3551;41.578;24.706;2023-08-06T07:41:22;90082.94;;;27.21;72.36
3464;BME280;3551;41.578;24.706;2023-08-06T07:43:48;90077.72;;;27.55;72.41
3464;BME280;3551;41.578;24.706;2023-08-06T07:46:15;90082.66;;;28.01;70.88
3464;BME280;3551;41.578;24.706;2023-08-06T07:48:42;90091.69;;;28.41;67.82
3464;BME280;3551;41.578;24.706;2023-08-06T07:51:08;90092.44;;;28.55;66.70
3464;BME280;3551;41.578;24.706;2023-08-06T07:53:35;90089.16;;;28.56;64.25
3464;BME280;3551;41.578;24.706;2023-08-06T07:56:03;90097.09;;;28.86;66.00
3464;BME280;3551;41.578;24.706;2023-08-06T07:58:30;90102.16;;;28.95;64.85
3464;BME280;3551;41.578;24.706;2023-08-06T08:00:57;90108.97;;;29.15;63.18
3464;BME280;3551;41.578;24.706;2023-08-06T08:03:24;90108.38;;;29.42;63.62
3464;BME280;3551;41.578;24.706;2023-08-06T08:05:50;90101.63;;;29.64;61.10
3464;BME280;3551;41.578;24.706;2023-08-06T08:08:21;90096.13;;;29.64;59.62
3464;BME280;3551;41.578;24.706;2023-08-06T08:10:48;90097.59;;;29.65;57.14
3464;BME280;3551;41.578;24.706;2023-08-06T08:13:16;90105.19;;;29.72;56.90
3464;BME280;3551;41.578;24.706;2023-08-06T08:15:43;90092.19;;;29.80;54.87
3464;BME280;3551;41.578;24.706;2023-08-06T08:18:09;90095.25;;;29.90;56.01
3464;BME280;3551;41.578;24.706;2023-08-06T08:20:36;90087.44;;;30.01;53.90
3464;BME280;3551;41.578;24.706;2023-08-06T08:23:03;90092.69;;;29.71;54.44
3464;BME280;3551;41.578;24.706;2023-08-06T08:25:29;90083.84;;;29.86;53.73
3464;BME280;3551;41.578;24.706;2023-08-06T08:27:57;90084.63;;;29.52;54.35
3464;BME280;3551;41.578;24.706;2023-08-06T08:30:25;90076.28;;;29.45;54.34
3464;BME280;3551;41.578;24.706;2023-08-06T08:32:52;90080.00;;;29.68;57.15
3464;BME280;3551;41.578;24.706;2023-08-06T08:35:18;90079.28;;;29.88;55.54
3464;BME280;3551;41.578;24.706;2023-08-06T08:37:45;90074.00;;;29.98;53.98
3464;BME280;3551;41.578;24.706;2023-08-06T08:40:13;90084.06;;;29.75;54.55
3464;BME280;3551;41.578;24.706;2023-08-06T08:42:42;90082.06;;;29.54;52.46
3464;BME280;3551;41.578;24.706;2023-08-06T08:45:11;90079.91;;;29.61;52.74
3464;BME280;3551;41.578;24.706;2023-08-06T08:47:40;90077.44;;;29.70;53.28
3464;BME280;3551;41.578;24.706;2023-08-06T08:50:07;90072.44;;;29.69;54.22
3464;BME280;3551;41.578;24.706;2023-08-06T08:52:35;90077.44;;;29.91;52.38
3464;BME280;3551;41.578;24.706;2023-08-06T08:55:02;90075.56;;;29.65;50.71
3464;BME280;3551;41.578;24.706;2023-08-06T08:57:29;90068.97;;;29.89;51.34
3464;BME280;3551;41.578;24.706;2023-08-06T08:59:55;90072.53;;;29.76;52.40
3464;BME280;3551;41.578;24.706;2023-08-06T09:02:22;90076.03;;;29.77;52.14
3464;BME280;3551;41.578;24.706;2023-08-06T09:04:52;90081.66;;;30.12;51.74
3464;BME280;3551;41.578;24.706;2023-08-06T09:07:19;90077.53;;;30.27;52.05
3464;BME280;3551;41.578;24.706;2023-08-06T09:09:48;90084.09;;;29.95;51.53
3464;BME280;3551;41.578;24.706;2023-08-06T09:12:16;90084.31;;;29.97;51.58
3464;BME280;3551;41.578;24.706;2023-08-06T09:14:43;90080.03;;;29.34;51.20
3464;BME280;3551;41.578;24.706;2023-08-06T09:17:10;90074.34;;;29.74;52.66
3464;BME280;3551;41.578;24.706;2023-08-06T09:19:36;90081.56;;;29.97;51.62
3464;BME280;3551;41.578;24.706;2023-08-06T09:22:04;90087.56;;;30.17;51.22
3464;BME280;3551;41.578;24.706;2023-08-06T09:24:38;90094.84;;;30.06;48.69
3464;BME280;3551;41.578;24.706;2023-08-06T09:27:04;90084.69;;;30.01;49.79
3464;BME280;3551;41.578;24.706;2023-08-06T09:29:31;90091.69;;;30.02;49.77
3464;BME280;3551;41.578;24.706;2023-08-06T09:31:58;90088.41;;;29.63;50.10
3464;BME280;3551;41.578;24.706;2023-08-06T09:34:25;90084.06;;;29.75;48.97
3464;BME280;3551;41.578;24.706;2023-08-06T09:36:52;90091.47;;;29.38;49.86
3464;BME280;3551;41.578;24.706;2023-08-06T09:39:21;90093.53;;;29.12;49.06
3464;BME280;3551;41.578;24.706;2023-08-06T09:41:48;90091.50;;;29.12;51.16
3464;BME280;3551;41.578;24.706;2023-08-06T09:44:15;90086.94;;;29.48;50.00
3464;BME280;3551;41.578;24.706;2023-08-06T09:46:44;90085.34;;;29.32;49.82
3464;BME280;3551;41.578;24.706;2023-08-06T09:49:15;90089.63;;;29.41;48.16
3464;BME280;3551;41.578;24.706;2023-08-06T09:51:41;90078.00;;;29.35;46.86
3464;BME280;3551;41.578;24.706;2023-08-06T09:54:10;90076.69;;;29.02;47.01
3464;BME280;3551;41.578;24.706;2023-08-06T09:56:40;90070.94;;;28.92;46.33
3464;BME280;3551;41.578;24.706;2023-08-06T09:59:07;90071.69;;;29.14;47.43
3464;BME280;3551;41.578;24.706;2023-08-06T10:01:34;90067.19;;;29.03;46.47
3464;BME280;3551;41.578;24.706;2023-08-06T10:04:01;90084.53;;;29.24;48.22
3464;BME280;3551;41.578;24.706;2023-08-06T10:06:28;90075.50;;;29.24;48.55
3464;BME280;3551;41.578;24.706;2023-08-06T10:08:54;90088.84;;;29.33;46.70
3464;BME280;3551;41.578;24.706;2023-08-06T10:11:21;90079.44;;;29.49;46.88
3464;BME280;3551;41.578;24.706;2023-08-06T10:13:50;90089.63;;;29.41;46.77
3464;BME280;3551;41.578;24.706;2023-08-06T10:16:19;90100.16;;;29.16;45.15
3464;BME280;3551;41.578;24.706;2023-08-06T10:18:47;90097.09;;;28.86;48.51
3464;BME280;3551;41.578;24.706;2023-08-06T10:21:14;90097.28;;;28.62;49.55
3464;BME280;3551;41.578;24.706;2023-08-06T10:23:41;90098.38;;;28.45;49.33
3464;BME280;3551;41.578;24.706;2023-08-06T10:26:08;90094.88;;;28.71;51.25
3464;BME280;3551;41.578;24.706;2023-08-06T10:28:35;90103.00;;;28.90;50.47
3464;BME280;3551;41.578;24.706;2023-08-06T10:31:04;90100.16;;;28.95;49.35
3464;BME280;3551;41.578;24.706;2023-08-06T10:33:40;90104.59;;;28.85;48.40
3464;BME280;3551;41.578;24.706;2023-08-06T10:36:08;90116.44;;;28.93;50.77
3464;BME280;3551;41.578;24.706;2023-08-06T10:38:36;90114.03;;;28.77;50.15
3464;BME280;3551;41.578;24.706;2023-08-06T10:41:09;90131.38;;;28.85;49.78
3464;BME280;3551;41.578;24.706;2023-08-06T10:43:41;90125.47;;;28.55;50.61
3464;BME280;3551;41.578;24.706;2023-08-06T10:46:13;90132.13;;;28.72;51.70
3464;BME280;3551;41.578;24.706;2023-08-06T10:48:47;90141.88;;;28.86;50.96
3464;BME280;3551;41.578;24.706;2023-08-06T10:51:13;90139.00;;;28.79;49.90
3464;BME280;3551;41.578;24.706;2023-08-06T10:53:41;90131.06;;;28.62;49.65
3464;BME280;3551;41.578;24.706;2023-08-06T10:56:12;90145.44;;;28.81;50.43
3464;BME280;3551;41.578;24.706;2023-08-06T10:58:39;90128.47;;;29.17;48.36
3464;BME280;3551;41.578;24.706;2023-08-06T11:01:06;90129.75;;;29.16;47.79
3464;BME280;3551;41.578;24.706;2023-08-06T11:03:34;90118.59;;;28.74;45.94
3464;BME280;3551;41.578;24.706;2023-08-06T11:06:01;90121.06;;;28.98;45.07
3464;BME280;3551;41.578;24.706;2023-08-06T11:08:29;90133.25;;;28.90;45.13
3464;BME280;3551;41.578;24.706;2023-08-06T11:10:56;90134.88;;;28.59;47.86
3464;BME280;3551;41.578;24.706;2023-08-06T11:13:33;90122.38;;;28.58;46.85
3464;BME280;3551;41.578;24.706;2023-08-06T11:16:00;90138.34;;;28.60;47.31
3464;BME280;3551;41.578;24.706;2023-08-06T11:18:27;90129.91;;;28.71;48.22
3464;BME280;3551;41.578;24.706;2023-08-06T11:20:57;90147.69;;;28.83;45.56
3464;BME280;3551;41.578;24.706;2023-08-06T11:23:25;90151.56;;;28.61;46.40
3464;BME280;3551;41.578;24.706;2023-08-06T11:25:53;90150.41;;;28.57;46.44
3464;BME280;3551;41.578;24.706;2023-08-06T11:28:21;90146.50;;;28.78;46.03
3464;BME280;3551;41.578;24.706;2023-08-06T11:30:48;90154.66;;;28.97;46.87
3464;BME280;3551;41.578;24.706;2023-08-06T11:33:17;90172.03;;;28.92;47.63
3464;BME280;3551;41.578;24.706;2023-08-06T11:35:47;90162.81;;;28.76;44.95
3464;BME280;3551;41.578;24.706;2023-08-06T11:38:15;90148.09;;;28.47;45.36
3464;BME280;3551;41.578;24.706;2023-08-06T11:40:45;90154.88;;;28.02;45.94
3464;BME280;3551;41.578;24.706;2023-08-06T11:43:12;90141.00;;;27.94;46.24
3464;BME280;3551;41.578;24.706;2023-08-06T11:45:38;90146.06;;;27.90;45.60
3464;BME280;3551;41.578;24.706;2023-08-06T11:48:08;90135.88;;;28.17;45.36
3464;BME280;3551;41.578;24.706;2023-08-06T11:50:36;90139.91;;;28.29;44.90
3464;BME280;3551;41.578;24.706;2023-08-06T11:53:04;90145.81;;;28.20;42.61
3464;BME280;3551;41.578;24.706;2023-08-06T11:55:32;90151.13;;;27.86;43.73
3464;BME280;3551;41.578;24.706;2023-08-06T11:58:02;90151.69;;;27.98;43.73
3464;BME280;3551;41.578;24.706;2023-08-06T12:00:29;90155.47;;;27.94;44.20
3464;BME280;3551;41.578;24.706;2023-08-06T12:02:56;90144.50;;;27.63;43.09
3464;BME280;3551;41.578;24.706;2023-08-06T12:05:23;90152.59;;;27.18;43.83
3464;BME280;3551;41.578;24.706;2023-08-06T12:07:50;90158.31;;;27.38;44.99
3464;BME280;3551;41.578;24.706;2023-08-06T12:10:19;90156.94;;;27.32;43.92
3464;BME280;3551;41.578;24.706;2023-08-06T12:12:47;90154.91;;;27.32;44.39
3464;BME280;3551;41.578;24.706;2023-08-06T12:15:15;90153.34;;;27.37;45.39
3464;BME280;3551;41.578;24.706;2023-08-06T12:17:42;90150.31;;;27.03;45.47
3464;BME280;3551;41.578;24.706;2023-08-06T12:20:09;90154.53;;;27.04;46.50
3464;BME280;3551;41.578;24.706;2023-08-06T12:22:36;90157.22;;;27.10;44.40
3464;BME280;3551;41.578;24.706;2023-08-06T12:25:04;90143.56;;;27.04;47.35
3464;BME280;3551;41.578;24.706;2023-08-06T12:27:33;90147.28;;;27.07;46.43
3464;BME280;3551;41.578;24.706;2023-08-06T12:30:01;90154.63;;;27.17;46.46
3464;BME280;3551;41.578;24.706;2023-08-06T12:32:28;90155.66;;;27.33;47.26
3464;BME280;3551;41.578;24.706;2023-08-06T12:34:55;90169.78;;;27.43;47.38
3464;BME280;3551;41.578;24.706;2023-08-06T12:37:22;90172.34;;;27.16;44.33
3464;BME280;3551;41.578;24.706;2023-08-06T12:39:48;90168.28;;;27.23;46.78
3464;BME280;3551;41.578;24.706;2023-08-06T12:42:15;90160.34;;;27.19;47.24
3464;BME280;3551;41.578;24.706;2023-08-06T12:44:42;90162.41;;;27.32;45.11
3464;BME280;3551;41.578;24.706;2023-08-06T12:47:10;90171.03;;;27.42;45.83
3464;BME280;3551;41.578;24.706;2023-08-06T12:49:37;90165.88;;;27.32;45.68
3464;BME280;3551;41.578;24.706;2023-08-06T12:52:05;90177.84;;;27.16;44.53
3464;BME280;3551;41.578;24.706;2023-08-06T12:54:34;90167.09;;;27.18;47.47
3464;BME280;3551;41.578;24.706;2023-08-06T12:57:02;90163.75;;;27.25;44.66
3464;BME280;3551;41.578;24.706;2023-08-06T12:59:28;90153.72;;;27.28;43.99
3464;BME280;3551;41.578;24.706;2023-08-06T13:01:55;90169.38;;;27.33;45.53
3464;BME280;3551;41.578;24.706;2023-08-06T13:04:23;90168.28;;;27.42;45.64
3464;BME280;3551;41.578;24.706;2023-08-06T13:06:50;90159.38;;;27.17;44.91
3464;BME280;3551;41.578;24.706;2023-08-06T13:09:16;90162.72;;;26.67;45.30